-- Link to M-PERC page --

Geo IR 85-92GHz
Date/Time_(UTC) Source Sensor Vmax(kts) ARCHER Lat Lon Geo-ref Lat Lon 50% cert. rad. 95% cert. rad. Eye diam (deg) % cert. of eye
20210916 21:51:58 SSMIS-17 85-92GHz 46.8 *** *** *** *** *** *** 3.00 ***
20210916 20:12:31 SSMIS-16 85-92GHz 48.2 32.48 126.74 32.51 126.77 0.31 0.87 1.50 5.3
20210916 20:00:38 SSMIS-18 85-92GHz 48.3 32.41 126.77 32.46 126.83 0.35 0.99 2.60 4.4
20210916 19:50:18 GMI 85-92GHz 48.5 32.49 126.87 32.56 126.95 0.18 0.50 2.30 20.4
20210916 19:50:18 * GMI 37GHz 48.5 32.49 126.51 32.56 126.59 0.13 0.37 0.60 ***
20210916 17:31:19 AMSR2 85-92GHz 50.0 32.10 126.56 32.10 126.56 0.39 1.10 0.30 6.6
20210916 17:31:19 * AMSR2 37GHz 50.0 32.15 126.32 32.15 126.32 0.15 0.44 0.40 ***
20210916 09:26:11 * SSMIS-17 85-92GHz 52.1 31.50 125.77 31.40 125.69 0.23 0.64 0.30 33.6
20210916 07:46:08 SSMIS-16 85-92GHz 53.5 31.18 125.58 31.26 125.64 0.31 0.87 0.30 29.7
20210916 07:34:08 * SSMIS-18 85-92GHz 53.7 31.16 125.45 31.26 125.52 0.26 0.73 0.40 21.4
20210915 22:06:02 * SSMIS-17 85-92GHz 53.4 30.36 125.06 30.38 125.04 0.15 0.43 0.30 74.1
20210915 20:26:15 SSMIS-16 85-92GHz 52.0 30.39 125.26 30.39 125.26 0.18 0.51 0.50 63.3
20210915 20:14:06 * SSMIS-18 85-92GHz 51.9 30.33 125.15 30.34 125.14 0.14 0.40 0.50 79.0
20210915 09:39:07 * SSMIS-17 85-92GHz 45.0 30.03 125.56 30.06 125.74 0.33 0.94 0.20 9.5
20210915 07:58:57 SSMIS-16 85-92GHz 45.0 29.92 125.79 29.91 125.72 0.32 0.90 1.80 7.4
20210915 07:46:40 SSMIS-18 85-92GHz 45.0 29.93 125.71 29.91 125.61 0.42 1.20 1.80 3.6
20210915 05:45:19 GMI 85-92GHz 44.4 30.25 126.03 30.25 126.03 0.44 1.24 0.40 4.4
20210915 05:45:19 * GMI 37GHz 44.4 30.15 125.62 30.15 125.62 0.20 0.55 0.20 ***
20210915 04:43:53 AMSR2 85-92GHz 41.8 30.09 125.91 30.10 125.91 0.43 1.21 1.30 12.1
20210915 04:43:53 * AMSR2 37GHz 41.8 30.29 125.62 30.30 125.62 0.22 0.61 0.20 ***
20210914 22:19:36 * SSMIS-17 85-92GHz 30.0 30.37 125.49 30.36 125.58 0.29 0.82 1.20 8.3
20210914 20:39:02 SSMIS-16 85-92GHz 30.0 30.55 125.27 30.55 125.24 0.31 0.87 1.30 8.8
20210914 20:26:37 SSMIS-18 85-92GHz 30.0 30.55 125.12 30.55 125.13 0.30 0.86 2.50 8.9
20210914 20:00:18 GMI 85-92GHz 30.0 30.41 125.34 30.40 125.41 0.58 1.64 0.70 0.6
20210914 20:00:18 * GMI 37GHz 30.0 30.36 125.51 30.35 125.58 0.19 0.53 0.60 ***
20210914 17:44:18 AMSR2 85-92GHz 30.7 30.40 125.17 30.41 125.14 0.24 0.66 1.00 21.7
20210914 17:44:18 * AMSR2 37GHz 30.7 30.35 125.28 30.36 125.25 0.17 0.48 1.50 ***
20210914 09:52:30 * SSMIS-17 85-92GHz 45.0 30.36 125.08 30.40 125.00 0.26 0.74 2.40 9.0
20210914 08:12:11 * SSMIS-16 85-92GHz 45.0 30.51 124.57 30.50 124.59 0.22 0.61 1.60 10.8
20210913 22:32:45 * SSMIS-17 85-92GHz 57.4 31.07 124.06 31.02 124.12 0.35 1.00 2.00 3.0
20210913 20:51:45 SSMIS-16 85-92GHz 60.2 31.09 123.85 31.11 123.83 0.45 1.27 1.70 1.7
20210913 20:38:47 SSMIS-18 85-92GHz 60.6 31.00 123.78 31.01 123.77 0.38 1.07 2.00 2.7
20210913 10:06:07 * SSMIS-17 85-92GHz 68.2 30.81 123.28 30.87 123.28 0.23 0.65 0.10 26.6
20210913 08:25:22 * SSMIS-16 85-92GHz 71.0 30.54 123.23 30.55 123.23 0.19 0.53 0.50 25.2
20210913 08:12:32 SSMIS-18 85-92GHz 71.3 30.58 123.23 30.60 123.23 0.24 0.67 0.30 7.2
20210913 04:56:18 AMSR2 85-92GHz 76.8 30.45 123.47 30.54 123.46 0.20 0.55 0.10 16.0
20210913 04:56:18 * AMSR2 37GHz 76.8 30.35 123.42 30.44 123.40 0.17 0.49 0.20 ***
20210912 22:46:34 * SSMIS-17 85-92GHz 85.0 28.79 123.55 28.97 123.59 0.12 0.35 0.20 83.7
20210912 21:05:44 * SSMIS-16 85-92GHz 85.0 28.41 123.32 28.26 123.24 0.14 0.39 0.20 88.1
20210912 20:52:41 SSMIS-18 85-92GHz 85.0 28.31 123.23 28.21 123.18 0.14 0.40 0.10 70.3
20210912 17:57:25 * AMSR2 85-92GHz 85.1 27.59 123.11 27.48 123.08 0.12 0.35 0.30 100.0
20210912 17:57:25 AMSR2 37GHz 85.1 27.59 123.00 27.48 122.96 0.13 0.38 1.90 ***
20210912 10:18:17 * SSMIS-17 85-92GHz 99.2 25.81 122.67 26.02 122.75 0.13 0.36 0.10 76.8
20210912 08:36:57 SSMIS-16 85-92GHz 103.5 25.50 122.34 25.48 122.33 0.12 0.34 0.20 88.5
20210912 08:23:46 * SSMIS-18 85-92GHz 104.0 25.51 122.33 25.53 122.33 0.12 0.33 0.20 91.2
20210912 06:45:19 GMI 85-92GHz 108.1 *** *** *** *** *** *** 3.00 ***
20210912 06:45:19 GMI 37GHz 108.1 *** *** *** *** *** *** 3.00 ***
20210911 23:01:30 * SSMIS-17 85-92GHz 110.0 23.64 122.17 23.72 122.19 0.13 0.38 0.20 79.2
20210911 21:00:19 * GMI 85-92GHz 110.0 23.30 122.23 23.22 122.20 0.10 0.29 0.20 100.0
20210911 21:00:19 GMI 37GHz 110.0 23.20 122.18 23.12 122.15 0.15 0.43 0.40 ***
20210911 17:15:51 * AMSR2 85-92GHz 111.2 22.68 122.05 22.72 122.06 0.11 0.30 0.20 100.0
20210911 17:15:51 AMSR2 37GHz 111.2 22.73 121.99 22.77 122.00 0.13 0.37 0.20 ***
20210911 10:30:26 * SSMIS-17 85-92GHz 125.0 21.52 121.93 21.64 121.97 0.12 0.34 0.20 91.7
20210911 07:40:19 GMI 85-92GHz 134.4 21.10 121.69 21.19 121.72 0.13 0.36 0.20 84.5
20210911 07:40:19 * GMI 37GHz 134.4 21.10 121.75 21.19 121.77 0.12 0.34 0.20 ***
20210911 05:06:15 * AMSR2 85-92GHz 140.7 20.88 121.51 20.93 121.50 0.11 0.31 0.20 100.0
20210911 05:06:15 AMSR2 37GHz 140.7 20.88 121.62 20.93 121.61 0.13 0.35 0.20 ***
20210910 10:43:02 * SSMIS-17 85-92GHz 141.1 18.55 123.03 18.65 122.96 0.12 0.34 0.20 100.0
20210909 21:10:18 * GMI 85-92GHz 125.3 16.90 124.46 16.84 124.56 0.11 0.30 0.40 100.0
20210909 21:10:18 GMI 37GHz 125.3 16.90 124.51 16.84 124.61 0.11 0.31 0.10 ***
20210909 20:06:51 SSMIS-16 85-92GHz 123.5 16.82 124.78 16.85 124.72 0.13 0.36 0.30 100.0
20210909 19:53:08 SSMIS-18 85-92GHz 123.1 16.80 124.71 16.85 124.61 0.11 0.31 0.30 100.0
20210909 17:29:33 * AMSR2 85-92GHz 120.0 16.50 125.08 16.50 125.08 0.11 0.30 0.50 100.0
20210909 17:29:33 AMSR2 37GHz 120.0 16.30 125.08 16.30 125.08 0.12 0.35 0.20 ***
20210909 07:50:18 GMI 85-92GHz 126.9 15.85 126.74 15.89 126.60 0.13 0.37 0.10 89.0
20210909 07:50:18 GMI 37GHz 126.9 15.75 126.63 15.79 126.50 0.13 0.37 0.30 ***
20210909 07:31:56 * SSMIS-16 85-92GHz 127.4 15.78 126.91 15.84 126.71 0.12 0.33 0.20 83.9
20210909 07:18:01 SSMIS-18 85-92GHz 127.8 15.77 126.90 15.84 126.66 0.12 0.33 0.20 76.6
20210909 05:16:59 * AMSR2 85-92GHz 131.2 15.67 127.20 15.68 127.16 0.11 0.32 0.10 100.0
20210909 05:16:59 AMSR2 37GHz 131.2 15.72 127.15 15.73 127.11 0.14 0.39 0.20 ***
20210908 22:02:56 * SSMIS-17 85-92GHz 138.4 15.45 128.42 15.48 128.19 0.11 0.31 0.60 93.6
20210908 20:19:56 SSMIS-16 85-92GHz 136.9 15.47 128.75 15.47 128.72 0.11 0.31 0.70 78.8
20210908 20:06:00 * SSMIS-18 85-92GHz 136.8 15.41 128.74 15.42 128.67 0.11 0.30 0.70 80.8
20210908 16:46:55 * AMSR2 85-92GHz 135.0 15.41 129.28 15.40 129.14 0.10 0.29 0.10 100.0
20210908 16:46:55 AMSR2 37GHz 135.0 15.26 129.28 15.25 129.14 0.12 0.35 0.10 ***
20210908 09:27:40 * SSMIS-17 85-92GHz 137.1 15.32 130.99 15.34 131.14 0.15 0.42 0.20 26.4
20210908 07:44:35 SSMIS-16 85-92GHz 139.3 15.45 131.12 15.44 131.00 0.13 0.37 0.60 48.6
20210908 07:30:26 * SSMIS-18 85-92GHz 138.7 15.46 131.10 15.45 130.94 0.12 0.33 0.60 79.4
20210907 22:15:48 SSMIS-17 85-92GHz 121.4 16.01 132.58 15.93 132.34 0.14 0.40 0.10 76.6
20210907 21:20:19 * GMI 85-92GHz 122.2 16.07 132.87 16.12 133.05 0.11 0.32 0.10 100.0
20210907 21:20:19 GMI 37GHz 122.2 16.02 132.87 16.07 133.05 0.12 0.35 0.30 ***
20210907 09:41:04 * SSMIS-17 85-92GHz 68.1 16.26 135.18 16.22 135.41 0.10 0.29 0.40 100.0
20210907 08:00:19 * GMI 85-92GHz 66.7 16.19 135.29 16.22 135.20 0.09 0.26 0.50 100.0
20210907 08:00:19 GMI 37GHz 66.7 16.19 135.29 16.22 135.20 0.16 0.45 0.20 ***
20210907 03:50:46 AMSR2 85-92GHz 59.6 16.19 135.86 16.06 136.07 0.20 0.57 0.30 76.0
20210907 03:50:46 * AMSR2 37GHz 59.6 16.09 135.97 15.96 136.17 0.16 0.46 0.30 ***
20210906 19:04:45 SSMIS-16 85-92GHz 45.0 *** *** *** *** *** *** 0.20 ***
20210906 18:50:08 * SSMIS-18 85-92GHz 45.0 15.41 137.42 15.33 137.58 0.15 0.42 0.30 79.7
20210906 16:59:04 AMSR2 85-92GHz 42.5 15.36 137.57 15.41 137.50 0.53 1.50 0.60 3.6
20210906 16:59:04 * AMSR2 37GHz 42.5 15.26 137.88 15.31 137.81 0.27 0.77 0.20 ***

Key:

Date/Time: UTC time. If this observation is used in the track it is marked with a "*". If it is used for its own 3-hr window, it is put in bold.

Source/sensor: Satellite source of the analyzed image.

Vmax: Maximum winds listed in the forecast center analysis/forecast, *not* ARCHER.

ARCHER lat/lon: Coordinates of the ARCHER algorithm, valid at the time of the observation. If no center fix could be found, then it is "***".

Geo ref lat/lon: Coordinates of the ARCHER algorithm, valid at the time of the *nearest geo image*.

50% cert. rad.: Radius of the circle (in degrees) that defines the area in which the ARCHER center of rotation is 50% certain. The lower the number, the more certain the position.

95% cert. rad.: Radius of the circle (in degrees) that defines the area in which the ARCHER center of rotation is 95% certain.

Eye diam (deg): ARCHER-resolved eye diameter (in degrees). Green: robust, yellow: less certain, red: not robust.

% cert. of eye: Percent certainty that an eye exists in this image, determined by ARCHER. Currently only available for IR and 85-92 GHz imagery.

Links to related versions: Summary table, ARCHER Track table, ARCHER Track Image Archive, Intensity Estimation, ARCHER-ERC page, F-Decks

This page automatically updates every 5 minutes